createdAt,value
2023-01-13T00:00:30.228Z,2.77
2023-01-13T00:02:58.276Z,2.40
2023-01-13T00:05:26.645Z,2.40
2023-01-13T00:07:54.538Z,2.53
2023-01-13T00:10:22.380Z,2.60
2023-01-13T00:12:50.275Z,2.63
2023-01-13T00:15:18.227Z,2.43
2023-01-13T00:17:48.665Z,2.90
2023-01-13T00:20:17.088Z,2.27
2023-01-13T00:22:44.961Z,3.00
2023-01-13T00:25:12.993Z,2.77
2023-01-13T00:27:41.004Z,2.57
2023-01-13T00:30:10.052Z,2.70
2023-01-13T00:32:37.919Z,2.77
2023-01-13T00:35:08.121Z,2.87
2023-01-13T00:37:37.523Z,2.70
2023-01-13T00:40:06.540Z,2.37
2023-01-13T00:42:52.177Z,2.30
2023-01-13T00:45:20.057Z,2.40
2023-01-13T00:47:47.915Z,2.67
2023-01-13T00:50:17.544Z,2.83
2023-01-13T00:52:45.454Z,3.17
2023-01-13T00:55:13.329Z,2.67
2023-01-13T00:57:41.197Z,2.10
2023-01-13T01:00:10.420Z,3.13
2023-01-13T01:02:38.337Z,2.50
2023-01-13T01:05:07.030Z,2.77
2023-01-13T01:07:36.247Z,2.80
2023-01-13T01:10:04.552Z,3.10
2023-01-13T01:12:32.419Z,3.20
2023-01-13T01:15:00.275Z,2.63
2023-01-13T01:17:29.212Z,2.93
2023-01-13T01:19:57.036Z,3.20
2023-01-13T01:22:24.923Z,2.73
2023-01-13T01:24:54.115Z,2.80
2023-01-13T01:27:22.023Z,3.00
2023-01-13T01:29:49.872Z,3.40
2023-01-13T01:32:17.742Z,3.43
2023-01-13T01:34:45.610Z,3.47
2023-01-13T01:37:13.453Z,3.10
2023-01-13T01:39:41.346Z,3.43
2023-01-13T01:42:33.945Z,4.07
2023-01-13T01:45:03.618Z,3.53
2023-01-13T01:47:33.300Z,3.93
2023-01-13T01:50:03.626Z,3.50
2023-01-13T01:52:35.797Z,3.90
2023-01-13T01:55:07.353Z,3.77
2023-01-13T01:57:43.558Z,3.97
2023-01-13T02:00:13.299Z,3.20
2023-01-13T02:02:41.753Z,4.60
2023-01-13T02:05:10.677Z,4.10
2023-01-13T02:07:40.812Z,4.50
2023-01-13T02:10:11.744Z,3.70
2023-01-13T02:12:43.443Z,4.10
2023-01-13T02:15:14.158Z,3.93
2023-01-13T02:18:03.860Z,3.93
2023-01-13T02:20:53.827Z,4.03
2023-01-13T02:24:13.750Z,4.67
2023-01-13T02:27:25.002Z,3.83
2023-01-13T02:30:19.204Z,3.67
2023-01-13T02:32:57.225Z,3.60
2023-01-13T02:35:31.855Z,3.50
2023-01-13T02:38:01.611Z,3.73
2023-01-13T02:40:35.495Z,3.90
2023-01-13T02:43:27.057Z,3.60
2023-01-13T02:46:01.642Z,3.57
2023-01-13T02:48:32.220Z,3.77
2023-01-13T02:51:04.252Z,3.70
2023-01-13T02:53:37.463Z,3.40
2023-01-13T02:56:07.350Z,3.27
2023-01-13T02:58:37.303Z,3.47
2023-01-13T03:01:06.794Z,3.20
2023-01-13T03:03:36.464Z,3.60
2023-01-13T03:06:19.197Z,2.93
2023-01-13T03:08:51.413Z,3.60
2023-01-13T03:11:20.986Z,3.17
2023-01-13T03:17:12.789Z,3.43
2023-01-13T03:19:48.729Z,3.00
2023-01-13T03:22:23.676Z,3.43
2023-01-13T03:24:54.377Z,3.37
2023-01-13T03:27:26.717Z,2.87
2023-01-13T03:30:00.064Z,3.00
2023-01-13T03:32:33.896Z,3.23
2023-01-13T03:35:08.446Z,2.97
2023-01-13T03:37:40.336Z,2.67
2023-01-13T03:40:12.660Z,3.00
2023-01-13T03:43:03.988Z,2.63
2023-01-13T03:45:33.553Z,3.10
2023-01-13T03:48:07.297Z,2.50
2023-01-13T03:50:40.120Z,2.80
2023-01-13T03:53:12.612Z,2.50
2023-01-13T03:55:45.809Z,2.23
2023-01-13T03:58:17.021Z,2.57
2023-01-13T04:00:51.860Z,2.30
2023-01-13T04:03:26.068Z,2.67
2023-01-13T04:05:59.580Z,2.50
2023-01-13T04:08:29.664Z,2.40
2023-01-13T04:11:03.453Z,3.03
2023-01-13T04:13:36.612Z,3.13
2023-01-13T04:16:07.264Z,2.93
2023-01-13T04:18:38.829Z,3.50
2023-01-13T04:21:09.177Z,2.50
2023-01-13T04:23:37.296Z,2.50
2023-01-13T04:26:05.530Z,2.83
2023-01-13T04:28:34.870Z,2.97
2023-01-13T04:31:02.840Z,2.67
2023-01-13T04:33:30.782Z,3.00
2023-01-13T04:36:00.081Z,3.20
2023-01-13T04:38:28.018Z,2.73
2023-01-13T04:40:55.940Z,2.70
2023-01-13T04:43:23.914Z,3.00
2023-01-13T04:45:51.892Z,2.83
2023-01-13T04:48:19.841Z,2.80
2023-01-13T04:50:47.797Z,2.97
2023-01-13T04:53:17.032Z,2.77
2023-01-13T04:55:47.161Z,2.60
2023-01-13T04:58:15.068Z,2.20
2023-01-13T05:00:43.331Z,2.53
2023-01-13T05:03:11.552Z,2.60
2023-01-13T05:05:39.541Z,2.50
2023-01-13T05:08:08.915Z,2.20
2023-01-13T05:10:38.329Z,2.33
2023-01-13T05:13:23.902Z,2.10
2023-01-13T05:16:17.718Z,2.60
2023-01-13T05:18:45.759Z,2.47
2023-01-13T05:21:27.615Z,2.57
2023-01-13T05:24:12.882Z,2.73
2023-01-13T05:26:42.388Z,2.37
2023-01-13T05:29:10.442Z,2.77
2023-01-13T05:31:38.395Z,2.50
2023-01-13T05:34:06.253Z,2.07
2023-01-13T05:36:34.222Z,2.73
2023-01-13T05:39:02.110Z,1.93
2023-01-13T05:41:47.841Z,1.83
2023-01-13T05:44:17.067Z,2.10
2023-01-13T05:46:45.022Z,2.10
2023-01-13T05:49:12.985Z,2.30
2023-01-13T05:51:40.921Z,2.37
2023-01-13T05:54:08.888Z,2.60
2023-01-13T05:56:36.904Z,2.33
2023-01-13T05:59:04.985Z,2.43
2023-01-13T06:01:35.610Z,2.07
2023-01-13T06:04:03.728Z,2.17
2023-01-13T06:06:31.759Z,2.20
2023-01-13T06:08:59.633Z,2.10
2023-01-13T06:11:27.553Z,2.73
2023-01-13T06:13:55.414Z,2.03
2023-01-13T06:16:23.335Z,2.30
2023-01-13T06:18:52.629Z,2.53
2023-01-13T06:21:20.614Z,2.30
2023-01-13T06:23:51.535Z,2.60
2023-01-13T06:26:23.763Z,2.97
2023-01-13T06:28:51.717Z,3.20
2023-01-13T06:31:20.494Z,2.13
2023-01-13T06:33:54.383Z,2.40
2023-01-13T06:36:26.190Z,2.23
2023-01-13T06:38:57.189Z,2.40
2023-01-13T06:41:41.041Z,2.20
2023-01-13T06:44:08.974Z,2.70
2023-01-13T06:46:37.144Z,2.53
2023-01-13T06:49:06.968Z,2.63
2023-01-13T06:51:34.918Z,2.37
2023-01-13T06:54:03.578Z,2.50
2023-01-13T06:56:31.681Z,2.80
2023-01-13T06:58:59.611Z,2.43
2023-01-13T07:01:27.675Z,2.77
2023-01-13T07:03:55.616Z,2.33
2023-01-13T07:06:25.118Z,2.37
2023-01-13T07:08:53.275Z,3.23
2023-01-13T07:11:21.529Z,2.63
2023-01-13T07:14:06.861Z,3.00
2023-01-13T07:16:34.800Z,2.63
2023-01-13T07:19:02.803Z,2.33
2023-01-13T07:21:32.058Z,2.50
2023-01-13T07:23:59.942Z,2.47
2023-01-13T07:26:27.853Z,2.30
2023-01-13T07:28:55.820Z,2.80
2023-01-13T07:31:23.792Z,2.70
2023-01-13T07:33:51.732Z,2.67
2023-01-13T07:36:19.686Z,2.97
2023-01-13T07:38:48.943Z,2.47
2023-01-13T07:41:34.788Z,2.50
2023-01-13T07:44:06.098Z,2.97
2023-01-13T07:46:34.337Z,2.30
2023-01-13T07:49:02.285Z,3.50
2023-01-13T07:51:30.217Z,2.87
2023-01-13T07:53:59.685Z,2.83
2023-01-13T07:56:27.640Z,2.60
2023-01-13T07:58:55.561Z,3.20
2023-01-13T08:01:23.631Z,3.00
2023-01-13T08:03:51.659Z,3.17
2023-01-13T08:06:19.583Z,2.90
2023-01-13T08:08:47.517Z,2.83
2023-01-13T08:11:16.932Z,3.07
2023-01-13T08:13:44.878Z,2.83
2023-01-13T08:16:15.642Z,3.67
2023-01-13T08:18:44.114Z,3.70
2023-01-13T08:21:14.010Z,3.07
2023-01-13T08:23:43.542Z,3.17
2023-01-13T08:26:13.952Z,3.50
2023-01-13T08:28:43.313Z,3.00
2023-01-13T08:31:13.782Z,3.00
2023-01-13T08:33:42.178Z,3.47
2023-01-13T08:36:12.173Z,3.40
2023-01-13T08:38:40.891Z,3.07
2023-01-13T08:41:12.686Z,3.13
2023-01-13T08:43:40.753Z,2.80
2023-01-13T08:46:10.211Z,3.13
2023-01-13T08:48:38.419Z,3.43
2023-01-13T08:51:08.280Z,2.97
2023-01-13T08:53:36.582Z,3.93
2023-01-13T08:56:10.744Z,3.20
2023-01-13T08:58:38.801Z,3.87
2023-01-13T09:01:07.294Z,4.37
2023-01-13T09:03:36.726Z,3.63
2023-01-13T09:06:05.170Z,3.27
2023-01-13T09:08:33.161Z,3.63
2023-01-13T09:11:01.201Z,4.00
2023-01-13T09:13:28.120Z,3.17
2023-01-13T09:15:56.861Z,3.70
2023-01-13T09:18:25.017Z,4.30
2023-01-13T09:20:54.340Z,3.50
2023-01-13T09:23:22.209Z,3.30
2023-01-13T09:25:50.257Z,4.07
2023-01-13T09:28:18.247Z,3.83
2023-01-13T09:30:46.218Z,3.50
2023-01-13T09:33:31.822Z,3.90
2023-01-13T09:36:01.498Z,3.60
2023-01-13T09:38:29.412Z,3.50
2023-01-13T09:40:57.474Z,3.50
2023-01-13T09:43:48.498Z,4.30
2023-01-13T09:46:34.573Z,3.80
2023-01-13T09:49:03.727Z,4.47
2023-01-13T09:51:37.717Z,3.93
2023-01-13T09:54:13.175Z,4.03
2023-01-13T09:56:41.074Z,4.33
2023-01-13T09:59:11.540Z,4.20
2023-01-13T10:01:45.976Z,3.60
2023-01-13T10:04:16.161Z,3.63
2023-01-13T10:06:49.214Z,3.63
2023-01-13T10:09:22.414Z,3.97
2023-01-13T10:12:09.100Z,3.70
2023-01-13T10:14:43.169Z,3.23
2023-01-13T10:17:22.690Z,4.30
2023-01-13T10:19:57.493Z,4.27
2023-01-13T10:22:47.852Z,3.47
2023-01-13T10:25:50.981Z,3.90
2023-01-13T10:28:19.762Z,3.10
2023-01-13T10:30:48.820Z,4.10
2023-01-13T10:33:18.421Z,3.37
2023-01-13T10:35:59.129Z,3.83
2023-01-13T10:38:31.123Z,3.60
2023-01-13T10:41:01.219Z,4.13
2023-01-13T10:43:30.655Z,3.80
2023-01-13T10:46:03.186Z,4.30
2023-01-13T10:48:40.067Z,3.80
2023-01-13T10:51:18.865Z,3.93
2023-01-13T10:53:52.796Z,4.37
2023-01-13T10:56:23.646Z,3.90
2023-01-13T10:58:51.903Z,3.40
2023-01-13T11:01:26.481Z,3.80
2023-01-13T11:03:55.564Z,3.73
2023-01-13T11:06:25.798Z,3.50
2023-01-13T11:08:58.284Z,2.87
2023-01-13T11:11:37.444Z,3.90
2023-01-13T11:14:26.823Z,4.00
2023-01-13T11:16:58.721Z,3.90
2023-01-13T11:19:32.094Z,3.90
2023-01-13T11:22:06.595Z,3.70
2023-01-13T11:24:41.038Z,3.90
2023-01-13T11:27:15.436Z,4.37
2023-01-13T11:29:50.909Z,3.80
2023-01-13T11:32:20.953Z,4.37
2023-01-13T11:34:52.536Z,3.80
2023-01-13T11:37:25.477Z,3.70
2023-01-13T11:40:01.449Z,4.13
2023-01-13T11:42:37.493Z,3.87
2023-01-13T11:45:16.502Z,4.10
2023-01-13T11:47:47.163Z,3.67
2023-01-13T11:50:18.147Z,3.33
2023-01-13T11:53:05.490Z,4.10
2023-01-13T11:55:45.158Z,3.90
2023-01-13T11:58:26.479Z,3.43
2023-01-13T12:01:27.536Z,3.70
2023-01-13T12:04:08.187Z,4.07
2023-01-13T12:06:38.616Z,4.30
2023-01-13T12:09:23.830Z,3.97
2023-01-13T12:12:22.792Z,3.10
2023-01-13T12:15:21.380Z,3.80
2023-01-13T12:18:03.320Z,3.60
2023-01-13T12:20:40.045Z,3.57
2023-01-13T12:23:14.687Z,3.17
2023-01-13T12:25:47.462Z,3.30
2023-01-13T12:28:21.065Z,3.27
2023-01-13T12:30:52.750Z,2.80
2023-01-13T12:33:30.296Z,3.20
2023-01-13T12:36:03.522Z,3.93
2023-01-13T12:38:37.820Z,3.20
2023-01-13T12:41:16.527Z,3.10
2023-01-13T12:44:06.931Z,3.50
2023-01-13T12:46:53.273Z,3.10
2023-01-13T12:49:30.227Z,3.27
2023-01-13T12:52:19.776Z,3.20
2023-01-13T12:55:16.749Z,3.40
2023-01-13T12:58:15.444Z,2.87
2023-01-13T13:01:02.103Z,2.70
2023-01-13T13:03:36.434Z,3.27
2023-01-13T13:06:23.631Z,3.10
2023-01-13T13:09:03.926Z,3.23
2023-01-13T13:12:04.070Z,3.13
2023-01-13T13:15:03.095Z,2.70
2023-01-13T13:18:00.965Z,3.50
2023-01-13T13:20:55.391Z,3.00
2023-01-13T13:23:47.902Z,3.00
2023-01-13T13:26:30.805Z,2.50
2023-01-13T13:29:41.335Z,3.23
2023-01-13T13:32:48.837Z,2.83
2023-01-13T13:35:37.101Z,3.20
2023-01-13T13:38:37.257Z,3.07
2023-01-13T13:41:29.307Z,3.23
2023-01-13T13:44:21.060Z,2.77
2023-01-13T13:46:50.004Z,2.80
2023-01-13T13:49:19.653Z,3.27
2023-01-13T13:51:59.294Z,2.80
2023-01-13T13:54:28.058Z,2.60
2023-01-13T13:56:56.318Z,3.00
2023-01-13T13:59:26.572Z,2.90
2023-01-13T14:02:01.500Z,2.30
2023-01-13T14:04:31.343Z,2.70
2023-01-13T14:07:04.311Z,2.20
2023-01-13T14:09:42.289Z,2.67
2023-01-13T14:12:19.482Z,2.30
2023-01-13T14:14:49.170Z,2.23
2023-01-13T14:17:23.457Z,2.67
2023-01-13T14:19:57.324Z,2.93
2023-01-13T14:22:26.599Z,2.93
2023-01-13T14:24:57.711Z,2.90
2023-01-13T14:27:27.587Z,2.83
2023-01-13T14:29:58.114Z,2.77
2023-01-13T14:32:34.091Z,2.87
2023-01-13T14:35:02.251Z,2.70
2023-01-13T14:37:35.962Z,3.60
2023-01-13T14:40:04.652Z,2.77
2023-01-13T14:42:35.274Z,2.93
2023-01-13T14:45:03.552Z,2.77
2023-01-13T14:47:33.867Z,3.10
2023-01-13T14:50:05.010Z,3.10
2023-01-13T14:52:36.648Z,3.23
2023-01-13T14:55:24.785Z,2.93
2023-01-13T14:57:52.956Z,3.00
2023-01-13T15:00:24.389Z,2.97
2023-01-13T15:03:07.199Z,2.83
2023-01-13T15:05:49.136Z,3.17
2023-01-13T15:08:40.299Z,3.00
2023-01-13T15:11:17.716Z,3.20
2023-01-13T15:13:52.843Z,3.10
2023-01-13T15:16:24.897Z,3.00
2023-01-13T15:18:53.566Z,3.00
2023-01-13T15:21:21.779Z,2.77
2023-01-13T15:23:51.106Z,2.70
2023-01-13T15:26:25.380Z,3.53
2023-01-13T15:28:55.473Z,3.20
2023-01-13T15:31:24.421Z,2.90
2023-01-13T15:33:52.381Z,3.03
2023-01-13T15:36:26.755Z,2.93
2023-01-13T15:38:56.792Z,3.20
2023-01-13T15:41:43.117Z,2.80
2023-01-13T15:44:30.329Z,3.00
2023-01-13T15:47:00.135Z,3.40
2023-01-13T15:49:34.725Z,2.90
2023-01-13T15:52:03.811Z,3.13
2023-01-13T15:54:33.223Z,2.77
2023-01-13T15:57:01.672Z,3.60
2023-01-13T15:59:29.603Z,2.70
2023-01-13T16:01:57.548Z,2.77
2023-01-13T16:04:25.438Z,2.63
2023-01-13T16:06:53.407Z,2.77
2023-01-13T16:09:21.304Z,2.50
2023-01-13T16:11:50.563Z,2.87
2023-01-13T16:14:18.529Z,2.73
2023-01-13T16:16:46.486Z,2.80
2023-01-13T16:19:14.360Z,3.07
2023-01-13T16:21:42.334Z,3.17
2023-01-13T16:24:10.219Z,2.60
2023-01-13T16:26:38.918Z,2.43
2023-01-13T16:29:09.421Z,2.97
2023-01-13T16:31:37.770Z,2.30
2023-01-13T16:34:06.746Z,3.00
2023-01-13T16:36:37.196Z,2.30
2023-01-13T16:39:06.447Z,2.27
2023-01-13T16:41:35.471Z,2.57
2023-01-13T16:44:05.976Z,2.70
2023-01-13T16:46:35.400Z,2.90
2023-01-13T16:49:05.848Z,2.70
2023-01-13T16:51:34.339Z,2.47
2023-01-13T16:54:02.321Z,2.57
2023-01-13T16:56:32.349Z,2.50
2023-01-13T16:59:04.495Z,2.97
2023-01-13T17:01:33.921Z,2.57
2023-01-13T17:04:03.777Z,2.97
2023-01-13T17:06:35.443Z,3.23
2023-01-13T17:09:04.563Z,3.03
2023-01-13T17:11:32.585Z,2.63
2023-01-13T17:14:00.783Z,3.67
2023-01-13T17:16:39.395Z,3.23
2023-01-13T17:19:09.067Z,2.90
2023-01-13T17:21:36.989Z,2.97
2023-01-13T17:24:06.001Z,3.20
2023-01-13T17:26:37.951Z,2.97
2023-01-13T17:29:08.606Z,3.53
2023-01-13T17:31:37.348Z,3.27
2023-01-13T17:34:06.235Z,3.37
2023-01-13T17:36:35.483Z,3.80
2023-01-13T17:39:03.455Z,3.33
2023-01-13T17:41:31.357Z,3.40
2023-01-13T17:43:59.315Z,3.43
2023-01-13T17:46:27.254Z,3.70
2023-01-13T17:48:55.882Z,3.83
2023-01-13T17:51:24.986Z,2.83
2023-01-13T17:53:54.648Z,3.00
2023-01-13T17:56:24.559Z,2.93
2023-01-13T17:58:52.502Z,3.13
2023-01-13T18:01:22.333Z,3.80
2023-01-13T18:03:50.799Z,3.80
2023-01-13T18:06:20.764Z,3.70
2023-01-13T18:08:49.409Z,3.60
2023-01-13T18:11:20.816Z,3.47
2023-01-13T18:13:50.494Z,2.97
2023-01-13T18:16:20.221Z,3.27
2023-01-13T18:18:50.368Z,4.17
2023-01-13T18:21:38.690Z,3.07
2023-01-13T18:24:32.888Z,3.03
2023-01-13T18:27:22.735Z,3.03
2023-01-13T18:29:52.840Z,3.63
2023-01-13T18:32:21.904Z,3.47
2023-01-13T18:34:53.941Z,3.47
2023-01-13T18:37:27.401Z,3.43
2023-01-13T18:39:55.290Z,3.20
2023-01-13T18:42:41.962Z,2.90
2023-01-13T18:45:10.774Z,3.40
2023-01-13T18:47:42.074Z,3.47
2023-01-13T18:50:13.652Z,3.33
2023-01-13T18:52:41.786Z,3.10
2023-01-13T18:55:10.730Z,3.37
2023-01-13T18:57:40.920Z,3.40
2023-01-13T19:00:11.626Z,3.33
2023-01-13T19:02:39.978Z,3.40
2023-01-13T19:05:08.474Z,4.10
2023-01-13T19:07:37.257Z,3.23
2023-01-13T19:10:06.535Z,3.47
2023-01-13T19:12:34.620Z,3.20
2023-01-13T19:15:04.429Z,3.17
2023-01-13T19:17:34.900Z,2.70
2023-01-13T19:20:03.688Z,3.80
2023-01-13T19:22:33.592Z,3.60
2023-01-13T19:25:02.988Z,3.60
2023-01-13T19:27:31.514Z,3.27
2023-01-13T19:30:00.633Z,4.00
2023-01-13T19:32:30.797Z,4.13
2023-01-13T19:34:59.807Z,3.23
2023-01-13T19:37:30.256Z,3.23
2023-01-13T19:39:59.140Z,3.80
2023-01-13T19:42:44.910Z,4.30
2023-01-13T19:45:31.769Z,4.00
2023-01-13T19:48:04.670Z,4.00
2023-01-13T19:50:36.084Z,4.57
2023-01-13T19:53:04.000Z,4.23
2023-01-13T19:55:32.125Z,4.20
2023-01-13T19:58:00.419Z,4.10
2023-01-13T20:00:29.073Z,4.40
2023-01-13T20:03:02.932Z,4.47
2023-01-13T20:05:32.258Z,3.70
2023-01-13T20:08:00.115Z,3.00
2023-01-13T20:10:30.332Z,4.10
2023-01-13T20:12:58.329Z,3.80
2023-01-13T20:15:26.272Z,3.60
2023-01-13T20:17:54.179Z,3.30
2023-01-13T20:20:22.187Z,3.50
2023-01-13T20:22:51.427Z,4.00
2023-01-13T20:25:20.011Z,4.10
2023-01-13T20:27:49.174Z,4.10
2023-01-13T20:30:17.313Z,3.17
2023-01-13T20:32:45.385Z,3.93
2023-01-13T20:35:13.665Z,3.23
2023-01-13T20:37:43.056Z,3.60
2023-01-13T20:40:16.018Z,4.10
2023-01-13T20:42:44.746Z,3.53
2023-01-13T20:45:17.099Z,4.83
2023-01-13T20:47:46.156Z,3.83
2023-01-13T20:50:14.520Z,4.27
2023-01-13T20:52:42.547Z,4.23
2023-01-13T20:55:12.169Z,4.90
2023-01-13T20:57:40.171Z,4.13
2023-01-13T21:00:10.087Z,4.87
2023-01-13T21:02:40.649Z,5.00
2023-01-13T21:05:09.602Z,4.47
2023-01-13T21:07:37.489Z,4.00
2023-01-13T21:10:05.993Z,4.00
2023-01-13T21:12:52.789Z,4.90
2023-01-13T21:15:21.827Z,3.90
2023-01-13T21:18:09.221Z,5.03
2023-01-13T21:20:38.478Z,5.70
2023-01-13T21:23:06.679Z,4.60
2023-01-13T21:25:36.976Z,4.30
2023-01-13T21:28:07.723Z,4.83
2023-01-13T21:30:37.553Z,4.90
2023-01-13T21:33:06.146Z,4.20
2023-01-13T21:35:34.231Z,5.07
2023-01-13T21:38:02.207Z,5.13
2023-01-13T21:40:48.207Z,4.67
2023-01-13T21:43:34.736Z,4.83
2023-01-13T21:46:31.517Z,4.60
2023-01-13T21:48:59.654Z,4.80
2023-01-13T21:51:27.681Z,4.57
2023-01-13T21:53:56.652Z,4.97
2023-01-13T21:56:25.351Z,4.70
2023-01-13T21:58:55.970Z,5.23
2023-01-13T22:01:24.247Z,5.43
2023-01-13T22:04:09.041Z,4.67
2023-01-13T22:06:36.955Z,5.17
2023-01-13T22:09:05.415Z,5.03
2023-01-13T22:11:33.696Z,4.73
2023-01-13T22:16:56.797Z,5.30
2023-01-13T22:19:25.011Z,5.23
2023-01-13T22:21:52.911Z,4.90
2023-01-13T22:24:21.231Z,5.40
2023-01-13T22:26:49.110Z,5.77
2023-01-13T22:29:18.523Z,4.87
2023-01-13T22:31:46.537Z,4.80
2023-01-13T22:34:14.533Z,4.40
2023-01-13T22:36:42.430Z,4.70
2023-01-13T22:39:12.156Z,3.80
2023-01-13T22:41:40.048Z,4.93
2023-01-13T22:44:08.142Z,4.23
2023-01-13T22:46:37.556Z,3.93
2023-01-13T22:49:05.720Z,4.87
2023-01-13T22:51:33.604Z,4.77
2023-01-13T22:54:01.670Z,4.67
2023-01-13T22:56:29.768Z,5.07
2023-01-13T22:59:00.418Z,5.37
2023-01-13T23:01:30.837Z,4.60
2023-01-13T23:04:00.811Z,5.30
2023-01-13T23:06:31.499Z,5.10
2023-01-13T23:08:59.710Z,5.20
2023-01-13T23:11:30.471Z,5.13
2023-01-13T23:14:00.029Z,4.80
2023-01-13T23:16:30.145Z,5.40
2023-01-13T23:18:59.726Z,4.80
2023-01-13T23:21:29.692Z,5.10
2023-01-13T23:23:58.858Z,4.73
2023-01-13T23:26:27.023Z,4.60
2023-01-13T23:28:59.473Z,5.13
2023-01-13T23:31:27.379Z,4.13
2023-01-13T23:33:55.322Z,4.83
2023-01-13T23:36:26.724Z,4.90
2023-01-13T23:38:55.163Z,4.43
2023-01-13T23:41:25.361Z,4.47
2023-01-13T23:43:55.767Z,4.90
2023-01-13T23:46:24.609Z,4.57
2023-01-13T23:48:52.979Z,4.57
2023-01-13T23:51:21.943Z,4.57
2023-01-13T23:53:51.800Z,4.77
2023-01-13T23:56:21.497Z,4.43
2023-01-13T23:58:50.589Z,4.70
